createdAt,value
2018-07-14T00:03:32.874Z,11
2018-07-14T00:13:32.994Z,12
2018-07-14T00:23:32.909Z,12
2018-07-14T00:33:32.963Z,12
2018-07-14T00:43:33.928Z,14
2018-07-14T00:53:33.008Z,14
2018-07-14T01:03:32.993Z,14
2018-07-14T01:13:32.965Z,17
2018-07-14T01:23:32.886Z,17
2018-07-14T01:33:33.025Z,15
2018-07-14T01:43:32.974Z,16
2018-07-14T01:53:32.944Z,15
2018-07-14T02:03:32.940Z,19
2018-07-14T02:13:32.927Z,16
2018-07-14T02:23:33.020Z,15
2018-07-14T02:33:32.992Z,17
2018-07-14T02:43:32.849Z,18
2018-07-14T02:53:33.035Z,19
2018-07-14T03:03:32.854Z,20
2018-07-14T03:13:33.101Z,21
2018-07-14T03:23:33.464Z,20
2018-07-14T03:33:33.051Z,20
2018-07-14T03:43:32.963Z,20
2018-07-14T03:53:32.899Z,21
2018-07-14T04:03:32.876Z,24
2018-07-14T04:13:32.960Z,19
2018-07-14T04:23:32.833Z,20
2018-07-14T04:33:32.968Z,19
2018-07-14T04:43:32.992Z,20
2018-07-14T04:53:32.905Z,20
2018-07-14T05:03:32.943Z,17
2018-07-14T05:13:32.960Z,18
2018-07-14T05:23:32.926Z,18
2018-07-14T05:33:32.916Z,15
2018-07-14T05:43:32.943Z,15
2018-07-14T05:53:32.971Z,12
2018-07-14T06:03:32.938Z,12
2018-07-14T06:13:32.958Z,12
2018-07-14T06:23:32.808Z,11
2018-07-14T06:33:32.914Z,10
2018-07-14T06:43:32.946Z,10
2018-07-14T06:53:32.879Z,11
2018-07-14T07:03:32.979Z,9
2018-07-14T07:13:32.949Z,8
2018-07-14T07:23:32.885Z,8
2018-07-14T07:33:45.366Z,8
2018-07-14T07:43:36.168Z,9
2018-07-14T07:53:33.361Z,9
2018-07-14T08:03:32.964Z,7
2018-07-14T08:13:32.937Z,8
2018-07-14T08:23:33.008Z,7
2018-07-14T08:33:32.822Z,7
2018-07-14T08:43:32.934Z,6
2018-07-14T08:53:32.946Z,8
2018-07-14T09:03:32.943Z,8
2018-07-14T09:13:32.930Z,7
2018-07-14T09:23:32.885Z,9
2018-07-14T09:33:33.002Z,10
2018-07-14T09:43:32.962Z,9
2018-07-14T09:53:34.095Z,8
2018-07-14T10:03:47.557Z,9
2018-07-14T10:13:49.117Z,9
2018-07-14T10:23:33.949Z,10
2018-07-14T10:33:32.964Z,11
2018-07-14T10:43:32.888Z,11
2018-07-14T10:53:32.971Z,12
2018-07-14T11:03:32.991Z,12
2018-07-14T11:13:32.874Z,13
2018-07-14T11:23:32.941Z,11
2018-07-14T11:33:32.967Z,9
2018-07-14T11:43:32.989Z,9
2018-07-14T11:53:33.786Z,8
2018-07-14T12:03:32.975Z,8
2018-07-14T12:13:35.978Z,9
2018-07-14T12:23:33.179Z,9
2018-07-14T12:33:33.138Z,8
2018-07-14T12:43:33.016Z,6
2018-07-14T12:53:33.099Z,6
2018-07-14T13:03:33.186Z,7
2018-07-14T13:13:33.254Z,6
2018-07-14T13:23:34.640Z,10
2018-07-14T13:33:33.418Z,6
2018-07-14T13:43:33.050Z,6
2018-07-14T13:53:33.081Z,5
2018-07-14T14:03:33.061Z,5
2018-07-14T14:13:33.094Z,5
2018-07-14T14:23:33.008Z,5
2018-07-14T14:33:33.113Z,7
2018-07-14T14:43:33.109Z,5
2018-07-14T14:53:33.011Z,5
2018-07-14T15:04:30.005Z,5
2018-07-14T15:13:33.017Z,3
2018-07-14T15:23:33.101Z,3
2018-07-14T15:33:33.087Z,4
2018-07-14T15:43:33.015Z,3
2018-07-14T15:53:33.087Z,4
2018-07-14T16:03:33.049Z,8
2018-07-14T16:13:33.235Z,8
2018-07-14T16:23:33.116Z,4
2018-07-14T16:33:33.130Z,10
2018-07-14T16:44:58.843Z,8
2018-07-14T16:54:04.047Z,10
2018-07-14T17:05:16.027Z,3
2018-07-14T17:13:33.012Z,3
2018-07-14T17:23:34.169Z,2
2018-07-14T17:33:33.217Z,4
2018-07-14T17:43:33.291Z,6
2018-07-14T17:53:37.001Z,2
2018-07-14T18:03:32.971Z,3
2018-07-14T18:13:33.123Z,4
2018-07-14T18:23:33.198Z,3
2018-07-14T18:33:33.084Z,3
2018-07-14T18:43:37.409Z,2
2018-07-14T18:53:34.178Z,4
2018-07-14T19:03:33.469Z,2
2018-07-14T19:13:33.189Z,2
2018-07-14T19:23:34.359Z,24
2018-07-14T19:33:33.133Z,4
2018-07-14T19:43:36.226Z,2
2018-07-14T19:53:33.098Z,2
2018-07-14T20:03:33.103Z,4
2018-07-14T20:13:34.485Z,19
2018-07-14T20:23:33.024Z,2
2018-07-14T20:33:33.022Z,2
2018-07-14T20:43:32.979Z,2
2018-07-14T20:53:33.047Z,2
2018-07-14T21:03:33.205Z,3
2018-07-14T21:14:02.525Z,4
2018-07-14T21:23:34.330Z,2
2018-07-14T21:33:33.448Z,3
2018-07-14T21:43:33.368Z,3
2018-07-14T21:53:34.384Z,3
2018-07-14T22:03:33.115Z,3
2018-07-14T22:13:33.866Z,4
2018-07-14T22:23:33.847Z,3
2018-07-14T22:33:33.212Z,4
2018-07-14T22:43:33.681Z,4
2018-07-14T22:53:34.108Z,4
2018-07-14T23:03:33.592Z,6
2018-07-14T23:13:33.373Z,6
2018-07-14T23:23:33.713Z,7
2018-07-14T23:33:33.115Z,6
2018-07-14T23:43:33.550Z,7
2018-07-14T23:53:33.639Z,8
